createdAt,value
2019-02-14T00:00:10.251Z,50.10
2019-02-14T00:03:05.191Z,50.20
2019-02-14T00:05:58.306Z,50.20
2019-02-14T00:08:52.638Z,50.20
2019-02-14T00:11:44.417Z,50.20
2019-02-14T00:14:36.096Z,50.10
2019-02-14T00:17:27.752Z,50.20
2019-02-14T00:20:19.382Z,50.30
2019-02-14T00:23:11.263Z,50.20
2019-02-14T00:26:03.177Z,50.30
2019-02-14T00:28:55.107Z,50.20
2019-02-14T00:31:47.107Z,50.40
2019-02-14T00:34:38.776Z,50.40
2019-02-14T00:37:33.795Z,50.50
2019-02-14T00:40:28.305Z,50.60
2019-02-14T00:43:20.228Z,50.50
2019-02-14T00:46:16.625Z,50.60
2019-02-14T00:49:08.549Z,50.50
2019-02-14T00:52:00.459Z,50.50
2019-02-14T00:54:52.652Z,50.50
2019-02-14T00:57:46.339Z,50.50
2019-02-14T01:00:38.038Z,50.70
2019-02-14T01:03:32.848Z,50.60
2019-02-14T01:06:26.908Z,50.50
2019-02-14T01:09:21.078Z,50.50
2019-02-14T01:12:14.390Z,50.50
2019-02-14T01:19:29.172Z,50.50
2019-02-14T01:38:33.229Z,50.50
2019-02-14T01:57:26.905Z,50.90
2019-02-14T02:01:20.465Z,50.90
2019-02-14T02:08:45.154Z,50.90
2019-02-14T02:23:12.153Z,50.80
2019-02-14T02:27:14.289Z,50.80
2019-02-14T02:37:57.084Z,50.80
2019-02-14T02:49:29.374Z,50.70
2019-02-14T02:55:30.053Z,50.60
2019-02-14T02:59:21.765Z,50.60
2019-02-14T03:09:46.875Z,50.70
2019-02-14T03:20:52.924Z,50.50
2019-02-14T03:24:45.477Z,50.50
2019-02-14T03:57:27.188Z,50.50
2019-02-14T04:08:05.426Z,50.40
2019-02-14T04:22:33.870Z,50.40
2019-02-14T04:27:47.953Z,50.40
2019-02-14T04:29:24.434Z,50.50
2019-02-14T04:32:47.043Z,50.50
2019-02-14T04:38:42.000Z,50.40
2019-02-14T04:43:48.457Z,50.60
2019-02-14T04:53:45.209Z,50.40
2019-02-14T04:55:46.475Z,50.50
2019-02-14T04:57:50.694Z,50.10
2019-02-14T06:02:47.783Z,48.10
2019-02-14T06:37:29.403Z,47.40
2019-02-14T06:40:36.231Z,47.20
2019-02-14T06:47:32.079Z,47.10
2019-02-14T06:51:39.249Z,46.60
2019-02-14T06:54:05.506Z,47.20
2019-02-14T07:08:45.853Z,46.90
2019-02-14T07:22:53.607Z,46.20
2019-02-14T07:35:12.290Z,45.70
2019-02-14T07:38:00.609Z,45.80
2019-02-14T07:41:01.127Z,45.60
2019-02-14T07:51:11.002Z,45.50
2019-02-14T07:58:04.560Z,45.40
2019-02-14T08:02:13.167Z,45.30
2019-02-14T08:05:49.149Z,44.20
2019-02-14T08:21:28.663Z,44.00
2019-02-14T08:35:41.218Z,43.80
2019-02-14T08:42:17.007Z,43.90
2019-02-14T08:45:24.689Z,43.90
2019-02-14T08:48:19.575Z,44.10
2019-02-14T08:51:13.502Z,43.80
2019-02-14T08:54:22.119Z,44.30
2019-02-14T08:57:15.468Z,44.20
2019-02-14T09:00:31.622Z,44.30
2019-02-14T09:03:45.519Z,44.00
2019-02-14T09:07:14.381Z,43.90
2019-02-14T09:15:04.559Z,44.70
2019-02-14T09:22:05.915Z,44.30
2019-02-14T09:27:50.520Z,44.40
2019-02-14T09:32:02.506Z,44.10
2019-02-14T09:35:02.893Z,44.60
2019-02-14T09:41:21.593Z,44.50
2019-02-14T09:47:32.461Z,44.60
2019-02-14T09:53:53.524Z,44.60
2019-02-14T09:57:08.960Z,44.70
2019-02-14T10:00:05.977Z,44.80
2019-02-14T10:03:19.630Z,44.80
2019-02-14T10:06:09.588Z,44.70
2019-02-14T10:09:02.390Z,44.70
2019-02-14T10:12:07.226Z,44.80
2019-02-14T10:18:38.207Z,44.80
2019-02-14T10:21:40.733Z,44.80
2019-02-14T10:24:34.502Z,44.90
2019-02-14T10:27:29.126Z,44.80
2019-02-14T10:30:27.318Z,44.70
2019-02-14T10:33:58.527Z,44.80
2019-02-14T10:38:00.150Z,44.60
2019-02-14T10:40:55.226Z,44.50
2019-02-14T10:45:05.591Z,44.90
2019-02-14T10:51:06.885Z,44.50
2019-02-14T10:55:33.696Z,44.60
2019-02-14T10:57:47.393Z,44.90
2019-02-14T11:01:09.212Z,45.10
2019-02-14T11:04:11.457Z,45.00
2019-02-14T11:07:13.772Z,45.20
2019-02-14T11:10:17.097Z,45.30
2019-02-14T11:13:05.836Z,45.40
2019-02-14T11:16:04.478Z,45.50
2019-02-14T11:18:57.292Z,45.50
2019-02-14T11:21:52.176Z,45.50
2019-02-14T11:24:47.445Z,45.50
2019-02-14T11:27:39.692Z,45.40
2019-02-14T11:30:36.968Z,45.40
2019-02-14T11:33:28.621Z,45.70
2019-02-14T11:36:21.260Z,45.30
2019-02-14T11:39:14.003Z,45.20
2019-02-14T11:42:07.017Z,44.90
2019-02-14T11:45:19.103Z,44.90
2019-02-14T11:48:13.064Z,44.20
2019-02-14T11:51:05.511Z,44.40
2019-02-14T11:53:59.043Z,44.60
2019-02-14T11:56:52.771Z,44.80
2019-02-14T11:59:45.824Z,44.50
2019-02-14T12:02:40.075Z,44.80
2019-02-14T12:05:35.770Z,44.80
2019-02-14T12:08:28.615Z,44.90
2019-02-14T12:11:23.083Z,44.90
2019-02-14T12:14:16.359Z,44.90
2019-02-14T12:17:09.608Z,45.00
2019-02-14T12:20:03.059Z,45.10
2019-02-14T12:23:02.740Z,45.30
2019-02-14T12:25:57.592Z,45.20
2019-02-14T12:28:52.259Z,45.00
2019-02-14T12:31:44.372Z,45.20
2019-02-14T12:34:37.228Z,45.30
2019-02-14T12:37:33.448Z,45.40
2019-02-14T12:40:28.089Z,45.50
2019-02-14T12:43:27.489Z,45.60
2019-02-14T12:46:31.486Z,45.70
2019-02-14T12:51:35.641Z,45.80
2019-02-14T12:56:20.508Z,46.00
2019-02-14T12:59:19.815Z,46.10
2019-02-14T13:02:38.790Z,46.10
2019-02-14T13:05:43.869Z,46.20
2019-02-14T13:11:52.965Z,46.20
2019-02-14T13:14:57.626Z,46.30
2019-02-14T13:17:56.516Z,46.30
2019-02-14T13:20:57.619Z,46.30
2019-02-14T13:23:48.258Z,46.40
2019-02-14T13:26:40.603Z,46.40
2019-02-14T13:30:00.393Z,46.40
2019-02-14T13:32:42.794Z,46.50
2019-02-14T13:35:40.151Z,46.50
2019-02-14T13:39:02.303Z,46.50
2019-02-14T13:45:05.191Z,46.60
2019-02-14T13:47:59.206Z,46.70
2019-02-14T13:50:52.780Z,46.70
2019-02-14T13:53:45.142Z,46.70
2019-02-14T13:56:38.911Z,46.80
2019-02-14T13:59:32.429Z,46.70
2019-02-14T14:02:27.784Z,46.80
2019-02-14T14:05:22.261Z,46.80
2019-02-14T14:08:17.074Z,46.80
2019-02-14T14:11:17.050Z,46.80
2019-02-14T14:14:20.711Z,46.90
2019-02-14T14:17:36.562Z,46.90
2019-02-14T14:20:28.325Z,46.90
2019-02-14T14:23:30.516Z,47.00
2019-02-14T14:26:22.380Z,47.00
2019-02-14T14:29:25.172Z,47.00
2019-02-14T14:32:23.558Z,47.10
2019-02-14T14:35:16.977Z,47.10
2019-02-14T14:38:14.300Z,47.20
2019-02-14T14:41:04.926Z,47.20
2019-02-14T14:47:43.183Z,47.30
2019-02-14T14:50:24.409Z,47.30
2019-02-14T14:53:16.414Z,47.30
2019-02-14T14:56:08.123Z,47.40
2019-02-14T14:59:00.070Z,47.40
2019-02-14T15:01:56.024Z,47.40
2019-02-14T15:04:49.251Z,47.40
2019-02-14T15:07:41.374Z,47.40
2019-02-14T15:10:36.163Z,47.50
2019-02-14T15:13:28.116Z,47.50
2019-02-14T15:16:23.913Z,47.50
2019-02-14T15:19:15.362Z,47.60
2019-02-14T15:22:07.617Z,47.60
2019-02-14T15:25:07.457Z,47.60
2019-02-14T15:27:59.133Z,47.60
2019-02-14T15:30:53.859Z,47.70
2019-02-14T15:33:50.102Z,47.70
2019-02-14T15:36:44.470Z,47.60
2019-02-14T15:39:43.311Z,47.70
2019-02-14T15:42:53.232Z,47.70
2019-02-14T15:45:53.823Z,47.70
2019-02-14T15:48:47.290Z,47.70
2019-02-14T15:51:43.818Z,47.70
2019-02-14T15:54:38.899Z,47.70
2019-02-14T15:57:53.550Z,47.70
2019-02-14T16:00:41.438Z,47.70
2019-02-14T16:03:33.916Z,47.80
2019-02-14T16:06:30.350Z,47.80
2019-02-14T16:09:23.603Z,47.80
2019-02-14T16:12:22.040Z,47.80
2019-02-14T16:15:17.248Z,47.80
2019-02-14T16:18:23.279Z,47.80
2019-02-14T16:21:17.455Z,47.90
2019-02-14T16:24:11.134Z,47.90
2019-02-14T16:27:06.153Z,47.90
2019-02-14T16:29:58.385Z,47.90
2019-02-14T16:32:52.412Z,47.90
2019-02-14T16:35:44.128Z,47.90
2019-02-14T16:38:37.184Z,47.90
2019-02-14T16:41:31.290Z,48.00
2019-02-14T16:44:22.445Z,48.00
2019-02-14T16:47:15.587Z,47.90
2019-02-14T16:50:10.079Z,48.00
2019-02-14T16:53:03.405Z,47.90
2019-02-14T16:56:01.856Z,47.90
2019-02-14T16:58:49.938Z,48.00
2019-02-14T17:01:43.723Z,48.00
2019-02-14T17:04:41.853Z,48.00
2019-02-14T17:07:37.719Z,48.00
2019-02-14T17:10:36.714Z,48.10
2019-02-14T17:13:22.639Z,48.10
2019-02-14T17:16:14.696Z,48.00
2019-02-14T17:19:06.385Z,48.00
2019-02-14T17:22:01.583Z,48.10
2019-02-14T17:24:54.089Z,48.00
2019-02-14T17:27:45.716Z,48.00
2019-02-14T17:30:37.748Z,48.00
2019-02-14T17:33:29.863Z,48.00
2019-02-14T17:36:24.913Z,48.00
2019-02-14T17:39:16.951Z,48.00
2019-02-14T17:42:09.452Z,48.00
2019-02-14T17:45:01.820Z,48.00
2019-02-14T17:47:56.821Z,48.10
2019-02-14T17:50:48.823Z,48.10
2019-02-14T17:53:41.451Z,48.10
2019-02-14T17:56:34.925Z,48.10
2019-02-14T17:59:37.294Z,48.10
2019-02-14T18:02:34.681Z,48.10
2019-02-14T18:05:27.837Z,48.10
2019-02-14T18:08:21.066Z,48.10
2019-02-14T18:11:14.973Z,48.10
2019-02-14T18:14:09.282Z,48.10
2019-02-14T18:17:02.746Z,48.20
2019-02-14T18:20:04.670Z,48.10
2019-02-14T18:23:08.812Z,48.80
2019-02-14T18:26:15.428Z,48.10
2019-02-14T18:29:11.538Z,48.20
2019-02-14T18:32:08.380Z,48.20
2019-02-14T18:35:06.687Z,48.20
2019-02-14T18:38:04.759Z,48.30
2019-02-14T18:41:04.077Z,48.20
2019-02-14T18:43:53.348Z,48.30
2019-02-14T18:46:52.137Z,48.30
2019-02-14T18:49:41.227Z,48.30
2019-02-14T18:52:36.763Z,48.30
2019-02-14T18:55:34.581Z,48.30
2019-02-14T18:58:26.707Z,48.30
2019-02-14T19:01:21.466Z,48.40
2019-02-14T19:04:13.023Z,48.30
2019-02-14T19:07:04.663Z,48.30
2019-02-14T19:09:56.596Z,48.40
2019-02-14T19:12:48.558Z,48.40
2019-02-14T19:15:40.600Z,48.40
2019-02-14T19:18:33.383Z,48.40
2019-02-14T19:21:25.436Z,48.40
2019-02-14T19:24:18.703Z,48.40
2019-02-14T19:27:11.180Z,48.40
2019-02-14T19:30:03.069Z,48.50
2019-02-14T19:32:55.771Z,48.40
2019-02-14T19:35:47.839Z,48.40
2019-02-14T19:38:39.414Z,48.40
2019-02-14T19:41:31.777Z,48.30
2019-02-14T19:44:23.641Z,48.40
2019-02-14T19:47:15.594Z,48.40
2019-02-14T19:50:07.137Z,48.40
2019-02-14T19:52:59.130Z,48.40
2019-02-14T19:55:50.683Z,48.50
2019-02-14T19:58:42.589Z,48.50
2019-02-14T20:01:34.373Z,48.50
2019-02-14T20:04:25.966Z,48.50
2019-02-14T20:07:17.609Z,48.60
2019-02-14T20:10:09.705Z,48.50
2019-02-14T20:13:01.637Z,48.60
2019-02-14T20:15:53.470Z,48.60
2019-02-14T20:18:45.080Z,48.60
2019-02-14T20:21:36.911Z,48.60
2019-02-14T20:24:28.579Z,48.50
2019-02-14T20:27:20.396Z,48.50
2019-02-14T20:30:12.723Z,48.40
2019-02-14T20:33:05.021Z,48.50
2019-02-14T20:35:58.266Z,48.50
2019-02-14T20:38:50.281Z,48.50
2019-02-14T20:41:46.008Z,48.50
2019-02-14T20:44:35.052Z,48.50
2019-02-14T20:47:27.097Z,48.50
2019-02-14T20:50:18.720Z,48.60
2019-02-14T20:53:10.690Z,48.60
2019-02-14T20:56:02.648Z,48.70
2019-02-14T20:58:54.673Z,48.70
2019-02-14T21:01:46.467Z,48.70
2019-02-14T21:04:37.969Z,48.70
2019-02-14T21:07:29.624Z,48.70
2019-02-14T21:10:21.107Z,48.70
2019-02-14T21:13:12.969Z,48.70
2019-02-14T21:16:05.092Z,48.80
2019-02-14T21:18:56.879Z,48.80
2019-02-14T21:21:48.818Z,48.80
2019-02-14T21:24:40.662Z,48.80
2019-02-14T21:27:35.113Z,48.80
2019-02-14T21:30:25.311Z,48.90
2019-02-14T21:33:17.174Z,48.90
2019-02-14T21:36:09.445Z,48.90
2019-02-14T21:39:01.524Z,49.00
2019-02-14T21:41:53.389Z,49.00
2019-02-14T21:44:45.241Z,49.00
2019-02-14T21:47:37.778Z,49.20
2019-02-14T21:50:29.795Z,49.20
2019-02-14T21:53:23.893Z,49.20
2019-02-14T21:56:16.215Z,49.20
2019-02-14T21:59:07.795Z,49.20
2019-02-14T22:02:04.992Z,49.30
2019-02-14T22:04:52.155Z,49.40
2019-02-14T22:07:45.020Z,49.40
2019-02-14T22:10:36.690Z,49.30
2019-02-14T22:13:28.549Z,49.40
2019-02-14T22:16:20.607Z,49.40
2019-02-14T22:19:12.604Z,49.40
2019-02-14T22:22:04.730Z,49.40
2019-02-14T22:24:56.438Z,49.40
2019-02-14T22:27:48.310Z,49.50
2019-02-14T22:30:40.398Z,49.40
2019-02-14T22:33:32.182Z,49.40
2019-02-14T22:36:24.114Z,49.50
2019-02-14T22:39:17.122Z,49.60
2019-02-14T22:42:09.735Z,49.60
2019-02-14T22:45:01.421Z,49.50
2019-02-14T22:47:54.433Z,49.50
2019-02-14T22:50:46.111Z,49.40
2019-02-14T22:53:37.961Z,49.40
2019-02-14T22:56:29.821Z,49.50
2019-02-14T22:59:21.389Z,49.50
2019-02-14T23:02:13.495Z,49.50
2019-02-14T23:05:05.259Z,49.50
2019-02-14T23:07:57.218Z,49.50
2019-02-14T23:10:48.908Z,49.50
2019-02-14T23:13:40.778Z,49.50
2019-02-14T23:16:32.308Z,49.50
2019-02-14T23:19:23.931Z,49.50
2019-02-14T23:22:15.851Z,49.50
2019-02-14T23:25:07.553Z,49.50
2019-02-14T23:27:59.248Z,49.50
2019-02-14T23:30:51.050Z,49.50
2019-02-14T23:33:42.675Z,49.50
2019-02-14T23:36:34.400Z,49.50
2019-02-14T23:39:26.092Z,49.50
2019-02-14T23:42:18.069Z,49.50
2019-02-14T23:45:10.207Z,49.40
2019-02-14T23:48:02.156Z,49.40
2019-02-14T23:50:54.176Z,49.40
2019-02-14T23:53:46.103Z,49.50
2019-02-14T23:56:37.706Z,49.50
2019-02-14T23:59:29.496Z,49.50
